createdAt,value
2017-03-18T00:00:16.516Z,0
2017-03-18T00:01:16.561Z,0
2017-03-18T00:02:16.631Z,0
2017-03-18T00:03:16.695Z,0
2017-03-18T00:04:16.715Z,0
2017-03-18T00:05:16.781Z,0
2017-03-18T00:06:16.840Z,0
2017-03-18T00:07:16.887Z,0
2017-03-18T00:08:16.644Z,0
2017-03-18T00:09:16.701Z,0
2017-03-18T00:10:17.053Z,0
2017-03-18T00:11:17.118Z,0
2017-03-18T00:12:17.150Z,0
2017-03-18T00:13:17.212Z,0
2017-03-18T00:14:17.266Z,0
2017-03-18T00:15:17.327Z,0
2017-03-18T00:16:17.377Z,0
2017-03-18T00:17:17.427Z,0
2017-03-18T00:18:17.495Z,0
2017-03-18T00:19:17.543Z,0
2017-03-18T00:20:17.607Z,0
2017-03-18T00:21:17.638Z,0
2017-03-18T00:22:17.688Z,0
2017-03-18T00:23:17.460Z,0
2017-03-18T00:24:17.497Z,0
2017-03-18T00:25:17.868Z,0
2017-03-18T00:26:17.612Z,0
2017-03-18T00:27:17.963Z,0
2017-03-18T00:28:18.030Z,0
2017-03-18T00:29:18.073Z,0
2017-03-18T00:30:18.131Z,0
2017-03-18T00:31:18.187Z,0
2017-03-18T00:32:18.239Z,0
2017-03-18T00:33:18.303Z,0
2017-03-18T00:34:18.351Z,0
2017-03-18T00:35:18.407Z,0
2017-03-18T00:36:18.471Z,0
2017-03-18T00:37:18.528Z,0
2017-03-18T00:38:18.562Z,0
2017-03-18T00:39:18.330Z,0
2017-03-18T00:40:18.663Z,0
2017-03-18T00:41:18.741Z,0
2017-03-18T00:42:18.784Z,0
2017-03-18T00:43:18.833Z,0
2017-03-18T00:44:18.883Z,0
2017-03-18T00:45:18.943Z,0
2017-03-18T00:46:19.005Z,0
2017-03-18T00:47:19.081Z,0
2017-03-18T00:48:18.797Z,0
2017-03-18T00:49:19.182Z,0
2017-03-18T00:50:19.213Z,0
2017-03-18T00:51:19.259Z,0
2017-03-18T00:52:19.329Z,0
2017-03-18T00:53:19.073Z,0
2017-03-18T00:54:19.425Z,0
2017-03-18T00:55:19.498Z,0
2017-03-18T00:56:19.255Z,0
2017-03-18T00:57:19.603Z,0
2017-03-18T00:58:19.655Z,0
2017-03-18T00:59:19.704Z,0
2017-03-18T01:00:19.757Z,0
2017-03-18T01:01:19.526Z,0
2017-03-18T01:02:19.859Z,0
2017-03-18T01:03:19.619Z,0
2017-03-18T01:04:19.960Z,0
2017-03-18T01:05:20.033Z,0
2017-03-18T01:06:19.779Z,0
2017-03-18T01:07:20.175Z,0
2017-03-18T01:08:20.189Z,0
2017-03-18T01:09:20.234Z,0
2017-03-18T01:10:20.000Z,0
2017-03-18T01:11:20.055Z,0
2017-03-18T01:12:20.419Z,0
2017-03-18T01:13:20.187Z,0
2017-03-18T01:14:20.223Z,0
2017-03-18T01:15:20.569Z,0
2017-03-18T01:16:20.619Z,0
2017-03-18T01:17:20.386Z,0
2017-03-18T01:18:20.760Z,0
2017-03-18T01:19:20.799Z,0
2017-03-18T01:20:20.539Z,0
2017-03-18T01:21:20.896Z,0
2017-03-18T01:22:20.946Z,0
2017-03-18T01:23:20.713Z,0
2017-03-18T01:24:21.051Z,0
2017-03-18T01:25:21.117Z,0
2017-03-18T01:26:21.159Z,0
2017-03-18T01:27:21.231Z,0
2017-03-18T01:28:21.274Z,0
2017-03-18T01:29:21.334Z,0
2017-03-18T01:30:21.379Z,0
2017-03-18T01:31:21.491Z,0
2017-03-18T01:32:21.498Z,0
2017-03-18T01:33:21.546Z,0
2017-03-18T01:34:21.596Z,0
2017-03-18T01:35:21.652Z,0
2017-03-18T01:36:21.727Z,0
2017-03-18T01:37:21.748Z,0
2017-03-18T01:38:21.828Z,0
2017-03-18T01:39:21.875Z,0
2017-03-18T01:40:21.911Z,0
2017-03-18T01:41:21.985Z,0
2017-03-18T01:42:22.040Z,0
2017-03-18T01:43:22.094Z,0
2017-03-18T01:44:22.175Z,0
2017-03-18T01:45:22.180Z,0
2017-03-18T01:46:22.243Z,0
2017-03-18T01:47:22.308Z,0
2017-03-18T01:48:22.353Z,0
2017-03-18T01:49:22.419Z,0
2017-03-18T01:50:22.459Z,0
2017-03-18T01:51:22.523Z,0
2017-03-18T01:52:22.770Z,0
2017-03-18T01:53:22.641Z,0
2017-03-18T01:54:22.380Z,0
2017-03-18T01:55:22.440Z,0
2017-03-18T01:56:22.784Z,0
2017-03-18T01:57:22.876Z,0
2017-03-18T01:58:22.910Z,0
2017-03-18T01:59:22.955Z,0
2017-03-18T02:00:23.001Z,0
2017-03-18T02:01:23.070Z,0
2017-03-18T02:02:23.127Z,0
2017-03-18T02:03:22.872Z,0
2017-03-18T02:04:23.214Z,0
2017-03-18T02:05:23.263Z,0
2017-03-18T02:06:23.329Z,0
2017-03-18T02:07:23.378Z,0
2017-03-18T02:08:23.460Z,0
2017-03-18T02:09:23.503Z,0
2017-03-18T02:10:23.557Z,0
2017-03-18T02:11:23.586Z,0
2017-03-18T02:12:23.658Z,0
2017-03-18T02:13:23.414Z,0
2017-03-18T02:14:23.763Z,0
2017-03-18T02:15:23.833Z,0
2017-03-18T02:16:23.860Z,0
2017-03-18T02:17:23.931Z,0
2017-03-18T02:18:23.966Z,0
2017-03-18T02:19:24.023Z,0
2017-03-18T02:20:24.097Z,0
2017-03-18T02:21:24.137Z,0
2017-03-18T02:22:24.176Z,0
2017-03-18T02:23:24.251Z,0
2017-03-18T02:24:23.998Z,0
2017-03-18T02:25:24.571Z,0
2017-03-18T02:26:24.625Z,0
2017-03-18T02:27:24.472Z,0
2017-03-18T02:28:24.518Z,0
2017-03-18T02:29:24.583Z,0
2017-03-18T02:30:38.012Z,0
2017-03-18T02:31:24.667Z,0
2017-03-18T02:32:24.722Z,0
2017-03-18T02:33:24.791Z,0
2017-03-18T02:34:24.850Z,0
2017-03-18T02:35:24.895Z,0
2017-03-18T02:36:24.647Z,0
2017-03-18T02:37:25.003Z,0
2017-03-18T02:38:25.073Z,0
2017-03-18T02:39:25.115Z,0
2017-03-18T02:40:25.154Z,0
2017-03-18T02:41:24.913Z,0
2017-03-18T02:42:24.966Z,0
2017-03-18T02:43:25.332Z,0
2017-03-18T02:44:25.382Z,0
2017-03-18T02:45:25.141Z,0
2017-03-18T02:46:25.494Z,0
2017-03-18T02:47:25.246Z,0
2017-03-18T02:48:25.605Z,0
2017-03-18T02:49:25.657Z,0
2017-03-18T02:50:25.693Z,0
2017-03-18T02:51:25.749Z,0
2017-03-18T02:52:25.520Z,0
2017-03-18T02:53:25.888Z,0
2017-03-18T02:54:26.140Z,0
2017-03-18T02:55:26.004Z,0
2017-03-18T02:56:26.016Z,0
2017-03-18T02:57:26.082Z,0
2017-03-18T02:58:26.140Z,0
2017-03-18T02:59:26.394Z,0
2017-03-18T03:00:26.449Z,0
2017-03-18T03:01:26.295Z,0
2017-03-18T03:02:26.355Z,0
2017-03-18T03:03:26.417Z,0
2017-03-18T03:04:26.477Z,0
2017-03-18T03:05:26.527Z,0
2017-03-18T03:06:26.572Z,0
2017-03-18T03:07:26.612Z,0
2017-03-18T03:08:26.379Z,0
2017-03-18T03:09:26.438Z,0
2017-03-18T03:10:26.777Z,0
2017-03-18T03:11:26.837Z,0
2017-03-18T03:12:26.891Z,0
2017-03-18T03:13:26.942Z,0
2017-03-18T03:14:27.018Z,0
2017-03-18T03:15:26.764Z,0
2017-03-18T03:16:27.092Z,0
2017-03-18T03:17:27.159Z,0
2017-03-18T03:18:27.220Z,0
2017-03-18T03:19:27.300Z,0
2017-03-18T03:20:27.326Z,0
2017-03-18T03:21:27.366Z,0
2017-03-18T03:22:27.454Z,0
2017-03-18T03:23:27.181Z,0
2017-03-18T03:24:27.551Z,0
2017-03-18T03:25:27.604Z,0
2017-03-18T03:26:27.349Z,0
2017-03-18T03:27:27.715Z,0
2017-03-18T03:28:27.763Z,0
2017-03-18T03:29:27.823Z,0
2017-03-18T03:30:27.853Z,0
2017-03-18T03:31:27.909Z,0
2017-03-18T03:32:28.206Z,0
2017-03-18T03:33:42.662Z,0
2017-03-18T03:34:28.099Z,0
2017-03-18T03:35:28.145Z,0
2017-03-18T03:36:41.584Z,0
2017-03-18T03:37:28.258Z,0
2017-03-18T03:38:28.301Z,0
2017-03-18T03:39:28.357Z,0
2017-03-18T03:40:28.414Z,0
2017-03-18T03:41:28.451Z,0
2017-03-18T03:42:28.520Z,0
2017-03-18T03:43:28.562Z,0
2017-03-18T03:44:28.630Z,0
2017-03-18T03:45:28.670Z,0
2017-03-18T03:46:28.724Z,0
2017-03-18T03:47:28.783Z,0
2017-03-18T03:48:28.844Z,0
2017-03-18T03:49:28.909Z,0
2017-03-18T03:50:28.652Z,0
2017-03-18T03:51:28.998Z,0
2017-03-18T03:52:29.046Z,0
2017-03-18T03:53:29.115Z,0
2017-03-18T03:54:29.166Z,0
2017-03-18T03:55:29.216Z,0
2017-03-18T03:56:29.284Z,0
2017-03-18T03:57:29.325Z,0
2017-03-18T03:58:29.374Z,0
2017-03-18T03:59:29.436Z,0
2017-03-18T04:00:29.512Z,0
2017-03-18T04:01:29.547Z,0
2017-03-18T04:02:29.582Z,0
2017-03-18T04:03:29.649Z,0
2017-03-18T04:04:29.932Z,0
2017-03-18T04:05:29.979Z,0
2017-03-18T04:06:29.802Z,0
2017-03-18T04:07:29.864Z,0
2017-03-18T04:08:29.913Z,0
2017-03-18T04:09:29.970Z,0
2017-03-18T04:10:30.025Z,0
2017-03-18T04:11:30.079Z,0
2017-03-18T04:12:30.157Z,0
2017-03-18T04:13:29.880Z,0
2017-03-18T04:14:30.258Z,0
2017-03-18T04:15:29.993Z,0
2017-03-18T04:16:30.053Z,0
2017-03-18T04:17:30.392Z,0
2017-03-18T04:18:30.449Z,0
2017-03-18T04:19:30.526Z,0
2017-03-18T04:20:30.568Z,0
2017-03-18T04:21:30.623Z,0
2017-03-18T04:22:30.668Z,0
2017-03-18T04:23:30.734Z,0
2017-03-18T04:24:30.783Z,0
2017-03-18T04:25:30.832Z,0
2017-03-18T04:26:30.579Z,0
2017-03-18T04:27:30.630Z,0
2017-03-18T04:28:30.997Z,0
2017-03-18T04:29:31.041Z,0
2017-03-18T04:30:31.108Z,0
2017-03-18T04:31:30.860Z,0
2017-03-18T04:32:31.205Z,0
2017-03-18T04:33:31.283Z,0
2017-03-18T04:34:31.545Z,0
2017-03-18T04:35:31.365Z,0
2017-03-18T04:36:31.133Z,0
2017-03-18T04:37:31.694Z,0
2017-03-18T04:38:31.732Z,0
2017-03-18T04:39:31.605Z,0
2017-03-18T04:40:31.653Z,0
2017-03-18T04:41:31.699Z,0
2017-03-18T04:42:31.744Z,0
2017-03-18T04:43:31.813Z,0
2017-03-18T04:44:31.868Z,0
2017-03-18T04:45:31.941Z,0
2017-03-18T04:46:31.968Z,0
2017-03-18T04:47:32.020Z,0
2017-03-18T04:48:32.080Z,0
2017-03-18T04:49:32.136Z,0
2017-03-18T04:50:32.174Z,0
2017-03-18T04:51:32.243Z,0
2017-03-18T04:52:32.295Z,0
2017-03-18T04:53:32.362Z,0
2017-03-18T04:54:32.422Z,0
2017-03-18T04:55:32.461Z,0
2017-03-18T04:56:32.513Z,0
2017-03-18T04:57:32.578Z,0
2017-03-18T04:58:32.615Z,0
2017-03-18T04:59:32.683Z,0
2017-03-18T05:00:32.423Z,0
2017-03-18T05:01:32.771Z,0
2017-03-18T05:02:32.535Z,0
2017-03-18T05:03:33.096Z,0
2017-03-18T05:04:32.942Z,0
2017-03-18T05:05:32.997Z,0
2017-03-18T05:06:33.263Z,0
2017-03-18T05:07:33.103Z,0
2017-03-18T05:08:33.156Z,0
2017-03-18T05:09:33.207Z,0
2017-03-18T05:10:33.267Z,0
2017-03-18T05:11:33.311Z,0
2017-03-18T05:12:33.379Z,0
2017-03-18T05:13:33.441Z,0
2017-03-18T05:14:33.182Z,0
2017-03-18T05:15:33.537Z,0
2017-03-18T05:16:33.591Z,0
2017-03-18T05:17:33.650Z,0
2017-03-18T05:18:33.703Z,0
2017-03-18T05:19:33.786Z,0
2017-03-18T05:20:33.795Z,4
2017-03-18T05:21:33.860Z,4
2017-03-18T05:22:33.919Z,4
2017-03-18T05:23:33.989Z,4
2017-03-18T05:24:34.025Z,4
2017-03-18T05:25:34.075Z,4
2017-03-18T05:26:34.127Z,8
2017-03-18T05:27:34.183Z,8
2017-03-18T05:28:34.245Z,4
2017-03-18T05:29:34.309Z,4
2017-03-18T05:30:34.334Z,8
2017-03-18T05:31:34.406Z,4
2017-03-18T05:32:34.452Z,8
2017-03-18T05:33:34.507Z,12
2017-03-18T05:34:34.579Z,12
2017-03-18T05:35:34.619Z,8
2017-03-18T05:36:34.674Z,12
2017-03-18T05:37:34.728Z,16
2017-03-18T05:38:34.798Z,16
2017-03-18T05:39:34.835Z,16
2017-03-18T05:40:34.882Z,20
2017-03-18T05:41:34.943Z,20
2017-03-18T05:42:35.008Z,20
2017-03-18T05:43:35.081Z,20
2017-03-18T05:44:35.093Z,24
2017-03-18T05:45:35.168Z,24
2017-03-18T05:46:35.210Z,24
2017-03-18T05:47:35.267Z,28
2017-03-18T05:48:35.031Z,32
2017-03-18T05:49:35.076Z,36
2017-03-18T05:50:35.423Z,36
2017-03-18T05:51:35.493Z,44
2017-03-18T05:52:34.928Z,36
2017-03-18T05:53:34.992Z,40
2017-03-18T05:54:35.341Z,40
2017-03-18T05:55:35.709Z,44
2017-03-18T05:56:35.745Z,52
2017-03-18T05:57:35.803Z,56
2017-03-18T05:58:35.863Z,60
2017-03-18T05:59:35.611Z,68
2017-03-18T06:00:35.964Z,68
2017-03-18T06:01:36.031Z,64
2017-03-18T06:02:36.074Z,68
2017-03-18T06:03:36.143Z,76
2017-03-18T06:04:36.192Z,80
2017-03-18T06:05:36.240Z,76
2017-03-18T06:06:36.298Z,76
2017-03-18T06:07:36.349Z,84
2017-03-18T06:08:36.404Z,96
2017-03-18T06:09:36.470Z,96
2017-03-18T06:10:36.531Z,104
2017-03-18T06:11:36.558Z,112
2017-03-18T06:12:36.612Z,116
2017-03-18T06:13:36.662Z,120
2017-03-18T06:14:36.723Z,132
2017-03-18T06:15:36.787Z,132
2017-03-18T06:16:36.832Z,148
2017-03-18T06:17:36.886Z,136
2017-03-18T06:18:36.940Z,128
2017-03-18T06:19:36.988Z,132
2017-03-18T06:20:37.047Z,136
2017-03-18T06:21:37.108Z,140
2017-03-18T06:22:37.167Z,156
2017-03-18T06:23:37.200Z,152
2017-03-18T06:24:37.265Z,144
2017-03-18T06:25:37.325Z,160
2017-03-18T06:26:37.068Z,160
2017-03-18T06:27:37.409Z,152
2017-03-18T06:28:37.500Z,152
2017-03-18T06:29:37.542Z,152
2017-03-18T06:30:37.597Z,144
2017-03-18T06:31:37.626Z,144
2017-03-18T06:32:37.694Z,152
2017-03-18T06:33:37.748Z,168
2017-03-18T06:34:37.792Z,172
2017-03-18T06:35:37.837Z,164
2017-03-18T06:36:37.907Z,176
2017-03-18T06:37:37.960Z,168
2017-03-18T06:38:38.019Z,168
2017-03-18T06:39:38.076Z,160
2017-03-18T06:40:38.121Z,176
2017-03-18T06:41:38.170Z,176
2017-03-18T06:42:38.224Z,204
2017-03-18T06:43:38.265Z,204
2017-03-18T06:44:38.334Z,216
2017-03-18T06:45:38.374Z,212
2017-03-18T06:46:38.143Z,220
2017-03-18T06:47:38.491Z,244
2017-03-18T06:48:38.551Z,236
2017-03-18T06:49:38.581Z,252
2017-03-18T06:50:38.651Z,276
2017-03-18T06:51:38.689Z,288
2017-03-18T06:52:38.760Z,284
2017-03-18T06:53:38.820Z,288
2017-03-18T06:54:38.862Z,268
2017-03-18T06:55:38.917Z,276
2017-03-18T06:56:38.668Z,276
2017-03-18T06:57:38.713Z,300
2017-03-18T06:58:38.773Z,288
2017-03-18T06:59:38.523Z,312
2017-03-18T07:00:39.176Z,304
2017-03-18T07:01:39.245Z,304
2017-03-18T07:02:38.991Z,300
2017-03-18T07:03:39.338Z,252
2017-03-18T07:04:39.389Z,272
2017-03-18T07:05:39.444Z,304
2017-03-18T07:06:39.204Z,300
2017-03-18T07:07:39.251Z,304
2017-03-18T07:08:39.288Z,304
2017-03-18T07:09:39.650Z,320
2017-03-18T07:10:39.410Z,316
2017-03-18T07:11:39.461Z,312
2017-03-18T07:12:39.821Z,340
2017-03-18T07:13:39.873Z,344
2017-03-18T07:14:39.922Z,340
2017-03-18T07:15:39.965Z,356
2017-03-18T07:16:40.040Z,376
2017-03-18T07:17:39.770Z,392
2017-03-18T07:18:40.131Z,404
2017-03-18T07:19:40.187Z,416
2017-03-18T07:20:40.241Z,416
2017-03-18T07:21:40.295Z,412
2017-03-18T07:22:40.358Z,384
2017-03-18T07:23:40.395Z,384
2017-03-18T07:24:40.463Z,412
2017-03-18T07:25:40.505Z,408
2017-03-18T07:26:40.602Z,392
2017-03-18T07:27:40.603Z,416
2017-03-18T07:28:40.674Z,392
2017-03-18T07:29:40.705Z,400
2017-03-18T07:30:40.767Z,408
2017-03-18T07:31:40.810Z,396
2017-03-18T07:32:40.879Z,408
2017-03-18T07:33:40.925Z,400
2017-03-18T07:34:40.675Z,424
2017-03-18T07:35:40.725Z,424
2017-03-18T07:36:40.772Z,420
2017-03-18T07:37:41.156Z,432
2017-03-18T07:38:41.200Z,440
2017-03-18T07:39:41.236Z,452
2017-03-18T07:40:41.323Z,456
2017-03-18T07:41:41.335Z,456
2017-03-18T07:42:41.113Z,476
2017-03-18T07:43:41.440Z,504
2017-03-18T07:44:41.495Z,528
2017-03-18T07:45:41.573Z,536
2017-03-18T07:46:41.607Z,516
2017-03-18T07:47:41.370Z,520
2017-03-18T07:48:41.414Z,544
2017-03-18T07:49:41.764Z,512
2017-03-18T07:50:41.852Z,540
2017-03-18T07:51:41.868Z,524
2017-03-18T07:52:41.935Z,504
2017-03-18T07:53:41.984Z,516
2017-03-18T07:54:42.040Z,524
2017-03-18T07:55:42.090Z,524
2017-03-18T07:56:42.143Z,556
2017-03-18T07:57:42.205Z,548
2017-03-18T07:58:41.939Z,552
2017-03-18T07:59:42.313Z,552
2017-03-18T08:00:42.373Z,572
2017-03-18T08:01:42.410Z,572
2017-03-18T08:02:42.482Z,584
2017-03-18T08:03:42.529Z,588
2017-03-18T08:04:42.576Z,596
2017-03-18T08:05:42.604Z,608
2017-03-18T08:06:42.674Z,560
2017-03-18T08:07:42.720Z,524
2017-03-18T08:08:42.469Z,564
2017-03-18T08:09:42.825Z,612
2017-03-18T08:10:42.870Z,668
2017-03-18T08:11:42.936Z,680
2017-03-18T08:12:42.990Z,700
2017-03-18T08:13:42.739Z,704
2017-03-18T08:14:43.104Z,732
2017-03-18T08:15:43.148Z,728
2017-03-18T08:16:43.185Z,744
2017-03-18T08:17:43.248Z,688
2017-03-18T08:18:43.309Z,696
2017-03-18T08:19:43.370Z,688
2017-03-18T08:20:43.403Z,680
2017-03-18T08:21:43.454Z,672
2017-03-18T08:22:43.519Z,724
2017-03-18T08:23:43.583Z,764
2017-03-18T08:24:43.621Z,752
2017-03-18T08:25:43.679Z,720
2017-03-18T08:26:43.726Z,728
2017-03-18T08:27:43.784Z,720
2017-03-18T08:28:43.853Z,708
2017-03-18T08:29:43.881Z,704
2017-03-18T08:30:43.941Z,708
2017-03-18T08:31:43.982Z,700
2017-03-18T08:32:44.088Z,708
2017-03-18T08:33:44.102Z,720
2017-03-18T08:34:44.156Z,756
2017-03-18T08:35:44.209Z,756
2017-03-18T08:36:44.265Z,732
2017-03-18T08:37:44.322Z,700
2017-03-18T08:38:44.369Z,692
2017-03-18T08:39:44.407Z,740
2017-03-18T08:40:44.483Z,752
2017-03-18T08:41:44.518Z,784
2017-03-18T08:42:44.590Z,812
2017-03-18T08:43:44.623Z,820
2017-03-18T08:44:44.691Z,816
2017-03-18T08:45:44.467Z,868
2017-03-18T08:46:44.790Z,908
2017-03-18T08:47:44.848Z,936
2017-03-18T08:48:44.879Z,860
2017-03-18T08:49:44.941Z,852
2017-03-18T08:50:44.987Z,852
2017-03-18T08:51:45.056Z,892
2017-03-18T08:52:45.095Z,900
2017-03-18T08:53:45.159Z,876
2017-03-18T08:54:45.271Z,860
2017-03-18T08:55:45.245Z,864
2017-03-18T08:56:45.007Z,904
2017-03-18T08:57:45.364Z,988
2017-03-18T08:58:45.120Z,1000
2017-03-18T08:59:45.164Z,840
2017-03-18T09:00:44.922Z,924
2017-03-18T09:01:45.288Z,916
2017-03-18T09:02:45.354Z,912
2017-03-18T09:03:45.679Z,908
2017-03-18T09:04:45.743Z,952
2017-03-18T09:05:45.502Z,932
2017-03-18T09:06:45.528Z,920
2017-03-18T09:07:45.627Z,884
2017-03-18T09:08:45.953Z,892
2017-03-18T09:09:46.021Z,904
2017-03-18T09:10:46.048Z,876
2017-03-18T09:11:45.810Z,904
2017-03-18T09:12:46.174Z,932
2017-03-18T09:13:46.220Z,924
2017-03-18T09:14:46.262Z,860
2017-03-18T09:15:46.018Z,844
2017-03-18T09:16:46.361Z,880
2017-03-18T09:17:46.416Z,892
2017-03-18T09:18:46.481Z,936
2017-03-18T09:19:46.529Z,936
2017-03-18T09:20:46.581Z,964
2017-03-18T09:21:46.632Z,1008
2017-03-18T09:22:46.677Z,1004
2017-03-18T09:23:46.748Z,940
2017-03-18T09:24:46.787Z,852
2017-03-18T09:25:46.859Z,804
2017-03-18T09:26:46.901Z,812
2017-03-18T09:27:46.954Z,900
2017-03-18T09:28:47.011Z,948
2017-03-18T09:29:47.063Z,996
2017-03-18T09:30:47.123Z,1012
2017-03-18T09:31:47.153Z,992
2017-03-18T09:32:47.222Z,992
2017-03-18T09:33:47.265Z,964
2017-03-18T09:34:47.339Z,908
2017-03-18T09:35:47.375Z,924
2017-03-18T09:36:47.133Z,900
2017-03-18T09:37:47.495Z,884
2017-03-18T09:38:47.525Z,888
2017-03-18T09:39:47.592Z,900
2017-03-18T09:40:47.651Z,920
2017-03-18T09:41:47.684Z,932
2017-03-18T09:42:47.748Z,908
2017-03-18T09:43:47.799Z,884
2017-03-18T09:44:47.859Z,868
2017-03-18T09:45:47.588Z,848
2017-03-18T09:46:47.955Z,868
2017-03-18T09:47:48.013Z,892
2017-03-18T09:48:47.762Z,912
2017-03-18T09:49:48.108Z,916
2017-03-18T09:50:48.164Z,920
2017-03-18T09:51:48.220Z,940
2017-03-18T09:52:48.268Z,948
2017-03-18T09:53:48.359Z,956
2017-03-18T09:54:48.371Z,1012
2017-03-18T09:55:48.429Z,1040
2017-03-18T09:56:48.486Z,1024
2017-03-18T09:57:48.552Z,1028
2017-03-18T09:58:48.604Z,948
2017-03-18T09:59:48.648Z,988
2017-03-18T10:00:48.698Z,1056
2017-03-18T10:01:48.762Z,1032
2017-03-18T10:02:48.796Z,984
2017-03-18T10:03:48.853Z,1000
2017-03-18T10:04:48.911Z,1040
2017-03-18T10:05:48.967Z,1080
2017-03-18T10:06:49.020Z,1152
2017-03-18T10:07:49.062Z,1208
2017-03-18T10:08:49.139Z,1188
2017-03-18T10:09:49.171Z,1132
2017-03-18T10:10:49.246Z,1140
2017-03-18T10:11:49.280Z,1152
2017-03-18T10:12:49.349Z,1156
2017-03-18T10:13:49.378Z,1112
2017-03-18T10:14:49.431Z,1132
2017-03-18T10:15:49.189Z,1108
2017-03-18T10:16:49.548Z,1112
2017-03-18T10:17:49.605Z,1164
2017-03-18T10:18:49.657Z,1176
2017-03-18T10:19:49.101Z,1148
2017-03-18T10:20:49.775Z,1148
2017-03-18T10:21:49.845Z,1148
2017-03-18T10:22:49.851Z,1160
2017-03-18T10:23:49.915Z,1148
2017-03-18T10:24:49.968Z,1144
2017-03-18T10:25:50.025Z,1152
2017-03-18T10:26:50.074Z,1132
2017-03-18T10:27:50.127Z,1084
2017-03-18T10:28:49.929Z,1040
2017-03-18T10:29:49.937Z,1036
2017-03-18T10:30:50.000Z,1012
2017-03-18T10:31:50.348Z,1012
2017-03-18T10:32:50.389Z,1024
2017-03-18T10:33:50.461Z,1088
2017-03-18T10:34:50.505Z,1084
2017-03-18T10:35:50.551Z,1084
2017-03-18T10:36:50.622Z,1076
2017-03-18T10:37:50.676Z,1056
2017-03-18T10:38:50.724Z,1068
2017-03-18T10:39:50.754Z,1032
2017-03-18T10:40:50.836Z,976
2017-03-18T10:41:50.890Z,1016
2017-03-18T10:42:50.921Z,1072
2017-03-18T10:43:50.980Z,1140
2017-03-18T10:44:51.047Z,1140
2017-03-18T10:45:51.084Z,1132
2017-03-18T10:46:51.143Z,1148
2017-03-18T10:47:51.186Z,1156
2017-03-18T10:48:51.238Z,1180
2017-03-18T10:49:51.299Z,1200
2017-03-18T10:50:51.341Z,1220
2017-03-18T10:51:51.400Z,1284
2017-03-18T10:52:51.155Z,1288
2017-03-18T10:53:51.517Z,1340
2017-03-18T10:54:51.565Z,1300
2017-03-18T10:55:51.324Z,1228
2017-03-18T10:56:51.683Z,1188
2017-03-18T10:57:51.727Z,1228
2017-03-18T10:58:51.779Z,1264
2017-03-18T10:59:51.821Z,1304
2017-03-18T11:00:51.869Z,1336
2017-03-18T11:01:51.936Z,1288
2017-03-18T11:02:51.975Z,1280
2017-03-18T11:03:52.044Z,1320
2017-03-18T11:04:52.097Z,1400
2017-03-18T11:05:51.843Z,1420
2017-03-18T11:06:52.206Z,1528
2017-03-18T11:07:51.960Z,1564
2017-03-18T11:08:52.307Z,1500
2017-03-18T11:09:52.349Z,1472
2017-03-18T11:10:52.400Z,1432
2017-03-18T11:11:52.454Z,1404
2017-03-18T11:12:52.209Z,1376
2017-03-18T11:13:52.585Z,1296
2017-03-18T11:14:52.314Z,1200
2017-03-18T11:15:52.678Z,1204
2017-03-18T11:16:52.734Z,1208
2017-03-18T11:17:52.485Z,1192
2017-03-18T11:18:52.534Z,1200
2017-03-18T11:19:52.594Z,1140
2017-03-18T11:20:52.955Z,1188
2017-03-18T11:21:52.997Z,1224
2017-03-18T11:22:53.056Z,1240
2017-03-18T11:23:53.107Z,1224
2017-03-18T11:24:53.145Z,1180
2017-03-18T11:25:52.906Z,1180
2017-03-18T11:26:53.275Z,1144
2017-03-18T11:27:53.001Z,1104
2017-03-18T11:28:53.384Z,1056
2017-03-18T11:29:53.426Z,1024
2017-03-18T11:30:53.498Z,964
2017-03-18T11:31:53.529Z,992
2017-03-18T11:32:53.582Z,1024
2017-03-18T11:33:53.639Z,1076
2017-03-18T11:34:53.697Z,1136
2017-03-18T11:35:53.741Z,1180
2017-03-18T11:36:53.525Z,1220
2017-03-18T11:37:53.849Z,1252
2017-03-18T11:38:53.917Z,1324
2017-03-18T11:39:53.965Z,1332
2017-03-18T11:40:54.013Z,1308
2017-03-18T11:41:54.073Z,1268
2017-03-18T11:42:54.106Z,1200
2017-03-18T11:43:54.174Z,1164
2017-03-18T11:44:54.228Z,1108
2017-03-18T11:45:54.270Z,1044
2017-03-18T11:46:54.337Z,1008
2017-03-18T11:47:54.372Z,1004
2017-03-18T11:48:54.439Z,1028
2017-03-18T11:49:54.486Z,1032
2017-03-18T11:50:54.547Z,1052
2017-03-18T11:51:54.597Z,1024
2017-03-18T11:52:54.632Z,1016
2017-03-18T11:53:54.686Z,984
2017-03-18T11:54:54.759Z,936
2017-03-18T11:55:54.786Z,924
2017-03-18T11:56:54.868Z,892
2017-03-18T11:57:54.893Z,876
2017-03-18T11:58:54.970Z,868
2017-03-18T11:59:54.712Z,868
2017-03-18T12:00:55.077Z,844
2017-03-18T12:01:54.825Z,828
2017-03-18T12:02:55.187Z,820
2017-03-18T12:03:55.260Z,820
2017-03-18T12:04:55.291Z,816
2017-03-18T12:05:55.026Z,772
2017-03-18T12:06:55.384Z,796
2017-03-18T12:07:55.439Z,844
2017-03-18T12:08:55.495Z,872
2017-03-18T12:09:55.237Z,940
2017-03-18T12:10:55.581Z,984
2017-03-18T12:11:55.640Z,988
2017-03-18T12:12:55.706Z,1024
2017-03-18T12:13:55.457Z,1028
2017-03-18T12:14:55.795Z,1012
2017-03-18T12:15:55.869Z,1044
2017-03-18T12:16:55.938Z,1064
2017-03-18T12:17:55.955Z,1040
2017-03-18T12:18:56.030Z,1040
2017-03-18T12:19:56.075Z,1020
2017-03-18T12:20:56.113Z,1056
2017-03-18T12:21:55.871Z,1016
2017-03-18T12:22:56.234Z,1040
2017-03-18T12:23:56.291Z,1072
2017-03-18T12:24:56.347Z,1096
2017-03-18T12:25:56.383Z,1108
2017-03-18T12:26:56.441Z,1188
2017-03-18T12:27:56.538Z,1232
2017-03-18T12:28:56.560Z,1252
2017-03-18T12:29:56.599Z,1240
2017-03-18T12:30:56.659Z,1248
2017-03-18T12:31:56.692Z,1260
2017-03-18T12:32:56.759Z,1248
2017-03-18T12:33:56.799Z,1224
2017-03-18T12:34:56.850Z,1204
2017-03-18T12:35:56.917Z,1192
2017-03-18T12:36:57.018Z,1144
2017-03-18T12:37:57.023Z,1160
2017-03-18T12:38:57.075Z,1156
2017-03-18T12:39:57.143Z,1160
2017-03-18T12:40:57.187Z,1152
2017-03-18T12:41:57.231Z,1120
2017-03-18T12:42:57.299Z,1036
2017-03-18T12:43:57.349Z,948
2017-03-18T12:44:57.405Z,848
2017-03-18T12:45:57.435Z,836
2017-03-18T12:46:57.494Z,920
2017-03-18T12:47:57.552Z,980
2017-03-18T12:48:57.605Z,1000
2017-03-18T12:49:57.353Z,1048
2017-03-18T12:50:57.692Z,1108
2017-03-18T12:51:57.757Z,1108
2017-03-18T12:52:57.805Z,1012
2017-03-18T12:53:57.577Z,1068
2017-03-18T12:54:57.913Z,1060
2017-03-18T12:55:57.982Z,1052
2017-03-18T12:56:58.024Z,1016
2017-03-18T12:57:58.088Z,996
2017-03-18T12:58:58.133Z,1012
2017-03-18T12:59:57.881Z,1044
2017-03-18T13:00:57.930Z,1048
2017-03-18T13:01:58.286Z,1080
2017-03-18T13:02:58.044Z,1116
2017-03-18T13:03:58.394Z,1116
2017-03-18T13:04:58.452Z,1148
2017-03-18T13:05:58.487Z,1184
2017-03-18T13:06:58.544Z,1208
2017-03-18T13:07:58.607Z,1220
2017-03-18T13:08:58.687Z,1232
2017-03-18T13:09:58.714Z,1240
2017-03-18T13:10:58.451Z,1228
2017-03-18T13:11:58.506Z,1172
2017-03-18T13:12:58.263Z,1216
2017-03-18T13:13:58.934Z,1200
2017-03-18T13:14:58.682Z,1168
2017-03-18T13:15:58.715Z,1180
2017-03-18T13:16:58.477Z,1176
2017-03-18T13:17:58.522Z,1156
2017-03-18T13:18:59.174Z,1116
2017-03-18T13:19:59.233Z,1028
2017-03-18T13:20:59.290Z,940
2017-03-18T13:21:59.339Z,1000
2017-03-18T13:22:59.406Z,996
2017-03-18T13:23:59.146Z,996
2017-03-18T13:24:59.503Z,992
2017-03-18T13:25:59.249Z,992
2017-03-18T13:26:59.311Z,988
2017-03-18T13:27:59.341Z,968
2017-03-18T13:28:59.707Z,956
2017-03-18T13:29:59.471Z,952
2017-03-18T13:30:59.505Z,944
2017-03-18T13:31:59.868Z,908
2017-03-18T13:32:59.321Z,900
2017-03-18T13:33:59.978Z,856
2017-03-18T13:35:00.035Z,908
2017-03-18T13:36:00.080Z,932
2017-03-18T13:36:59.827Z,936
2017-03-18T13:38:00.192Z,904
2017-03-18T13:39:00.240Z,844
2017-03-18T13:40:00.305Z,820
2017-03-18T13:40:59.736Z,816
2017-03-18T13:42:00.400Z,824
2017-03-18T13:43:00.465Z,824
2017-03-18T13:44:00.522Z,804
2017-03-18T13:45:00.262Z,804
2017-03-18T13:46:00.617Z,784
2017-03-18T13:47:00.356Z,780
2017-03-18T13:48:00.744Z,812
2017-03-18T13:49:00.770Z,820
2017-03-18T13:50:00.843Z,816
2017-03-18T13:51:00.870Z,832
2017-03-18T13:52:00.338Z,840
2017-03-18T13:53:00.967Z,840
2017-03-18T13:54:00.727Z,856
2017-03-18T13:55:00.797Z,828
2017-03-18T13:56:01.135Z,776
2017-03-18T13:57:01.198Z,744
2017-03-18T13:58:01.249Z,736
2017-03-18T13:59:01.312Z,720
2017-03-18T14:00:01.338Z,768
2017-03-18T14:01:01.405Z,752
2017-03-18T14:02:01.451Z,796
2017-03-18T14:03:01.497Z,792
2017-03-18T14:04:01.255Z,760
2017-03-18T14:05:01.623Z,776